sensor_id;sensor_type;location;lat;lon;timestamp;P1;durP1;ratioP1;P2;durP2;ratioP2
20241;SDS011;10279;46.388;8.116;2022-09-03T00:00:55;1.63;;;1.40;;
20241;SDS011;10279;46.388;8.116;2022-09-03T00:03:38;1.73;;;1.63;;
20241;SDS011;10279;46.388;8.116;2022-09-03T00:06:11;2.00;;;1.67;;
20241;SDS011;10279;46.388;8.116;2022-09-03T00:08:53;1.98;;;1.63;;
20241;SDS011;10279;46.388;8.116;2022-09-03T00:14:31;2.10;;;1.90;;
20241;SDS011;10279;46.388;8.116;2022-09-03T00:17:00;2.22;;;1.90;;
20241;SDS011;10279;46.388;8.116;2022-09-03T00:19:36;2.28;;;1.70;;
20241;SDS011;10279;46.388;8.116;2022-09-03T00:22:15;3.80;;;1.92;;
20241;SDS011;10279;46.388;8.116;2022-09-03T00:24:47;2.70;;;1.83;;
20241;SDS011;10279;46.388;8.116;2022-09-03T00:27:19;2.95;;;2.15;;
20241;SDS011;10279;46.388;8.116;2022-09-03T00:29:54;2.88;;;2.17;;
20241;SDS011;10279;46.388;8.116;2022-09-03T00:32:28;5.47;;;1.90;;
20241;SDS011;10279;46.388;8.116;2022-09-03T00:35:05;4.25;;;2.00;;
20241;SDS011;10279;46.388;8.116;2022-09-03T00:37:39;3.28;;;2.22;;
20241;SDS011;10279;46.388;8.116;2022-09-03T00:40:09;2.78;;;2.20;;
20241;SDS011;10279;46.388;8.116;2022-09-03T00:42:54;4.32;;;2.00;;
20241;SDS011;10279;46.388;8.116;2022-09-03T00:45:43;5.47;;;2.50;;
20241;SDS011;10279;46.388;8.116;2022-09-03T00:48:25;2.80;;;2.58;;
20241;SDS011;10279;46.388;8.116;2022-09-03T00:51:05;2.20;;;1.85;;
20241;SDS011;10279;46.388;8.116;2022-09-03T00:56:29;2.67;;;1.95;;
20241;SDS011;10279;46.388;8.116;2022-09-03T01:07:43;3.03;;;1.63;;
20241;SDS011;10279;46.388;8.116;2022-09-03T01:13:19;2.97;;;2.20;;
20241;SDS011;10279;46.388;8.116;2022-09-03T01:26:54;2.78;;;2.40;;
20241;SDS011;10279;46.388;8.116;2022-09-03T01:29:50;2.10;;;1.90;;
20241;SDS011;10279;46.388;8.116;2022-09-03T01:35:24;2.30;;;2.03;;
20241;SDS011;10279;46.388;8.116;2022-09-03T01:46:40;2.08;;;1.88;;
20241;SDS011;10279;46.388;8.116;2022-09-03T01:49:16;2.42;;;1.90;;
20241;SDS011;10279;46.388;8.116;2022-09-03T01:52:01;2.45;;;1.83;;
20241;SDS011;10279;46.388;8.116;2022-09-03T01:54:45;2.10;;;1.90;;
20241;SDS011;10279;46.388;8.116;2022-09-03T02:00:18;1.80;;;1.70;;
20241;SDS011;10279;46.388;8.116;2022-09-03T02:02:49;2.72;;;1.77;;
20241;SDS011;10279;46.388;8.116;2022-09-03T02:07:54;1.95;;;1.83;;
20241;SDS011;10279;46.388;8.116;2022-09-03T02:10:31;2.10;;;1.70;;
20241;SDS011;10279;46.388;8.116;2022-09-03T02:13:04;2.65;;;1.90;;
20241;SDS011;10279;46.388;8.116;2022-09-03T02:15:42;2.50;;;1.73;;
20241;SDS011;10279;46.388;8.116;2022-09-03T02:18:18;2.28;;;1.75;;
20241;SDS011;10279;46.388;8.116;2022-09-03T02:20:50;1.73;;;1.58;;
20241;SDS011;10279;46.388;8.116;2022-09-03T02:23:19;1.85;;;1.70;;
20241;SDS011;10279;46.388;8.116;2022-09-03T02:25:57;1.83;;;1.60;;
20241;SDS011;10279;46.388;8.116;2022-09-03T02:28:27;1.65;;;1.50;;
20241;SDS011;10279;46.388;8.116;2022-09-03T02:30:56;2.30;;;1.83;;
20241;SDS011;10279;46.388;8.116;2022-09-03T02:33:24;2.95;;;1.83;;
20241;SDS011;10279;46.388;8.116;2022-09-03T02:35:52;4.38;;;2.03;;
20241;SDS011;10279;46.388;8.116;2022-09-03T02:38:24;2.75;;;2.28;;
20241;SDS011;10279;46.388;8.116;2022-09-03T02:40:52;3.83;;;2.60;;
20241;SDS011;10279;46.388;8.116;2022-09-03T02:45:58;1.70;;;1.60;;
20241;SDS011;10279;46.388;8.116;2022-09-03T02:48:28;4.63;;;1.75;;
20241;SDS011;10279;46.388;8.116;2022-09-03T02:50:55;2.25;;;1.90;;
20241;SDS011;10279;46.388;8.116;2022-09-03T02:53:22;2.13;;;1.77;;
20241;SDS011;10279;46.388;8.116;2022-09-03T02:55:49;2.03;;;1.90;;
20241;SDS011;10279;46.388;8.116;2022-09-03T02:58:16;1.65;;;1.55;;
20241;SDS011;10279;46.388;8.116;2022-09-03T03:00:43;1.65;;;1.55;;
20241;SDS011;10279;46.388;8.116;2022-09-03T03:03:11;2.40;;;1.42;;
20241;SDS011;10279;46.388;8.116;2022-09-03T03:08:11;2.92;;;1.70;;
20241;SDS011;10279;46.388;8.116;2022-09-03T03:10:40;3.17;;;1.55;;
20241;SDS011;10279;46.388;8.116;2022-09-03T03:13:11;3.55;;;2.03;;
20241;SDS011;10279;46.388;8.116;2022-09-03T03:15:39;2.10;;;1.90;;
20241;SDS011;10279;46.388;8.116;2022-09-03T03:18:06;4.15;;;2.20;;
20241;SDS011;10279;46.388;8.116;2022-09-03T03:20:37;2.63;;;2.40;;
20241;SDS011;10279;46.388;8.116;2022-09-03T03:23:05;2.33;;;2.13;;
20241;SDS011;10279;46.388;8.116;2022-09-03T03:25:34;3.30;;;2.05;;
20241;SDS011;10279;46.388;8.116;2022-09-03T03:28:03;1.70;;;1.60;;
20241;SDS011;10279;46.388;8.116;2022-09-03T03:30:31;2.65;;;1.95;;
20241;SDS011;10279;46.388;8.116;2022-09-03T03:32:59;2.55;;;1.85;;
20241;SDS011;10279;46.388;8.116;2022-09-03T03:35:26;2.85;;;1.83;;
20241;SDS011;10279;46.388;8.116;2022-09-03T03:37:56;2.60;;;1.73;;
20241;SDS011;10279;46.388;8.116;2022-09-03T03:40:24;2.13;;;1.77;;
20241;SDS011;10279;46.388;8.116;2022-09-03T03:42:51;2.53;;;2.00;;
20241;SDS011;10279;46.388;8.116;2022-09-03T03:45:19;5.15;;;1.90;;
20241;SDS011;10279;46.388;8.116;2022-09-03T03:47:46;2.30;;;1.90;;
20241;SDS011;10279;46.388;8.116;2022-09-03T03:50:13;1.73;;;1.60;;
20241;SDS011;10279;46.388;8.116;2022-09-03T03:52:40;2.15;;;1.95;;
20241;SDS011;10279;46.388;8.116;2022-09-03T03:55:08;2.03;;;1.83;;
20241;SDS011;10279;46.388;8.116;2022-09-03T03:57:35;2.20;;;1.60;;
20241;SDS011;10279;46.388;8.116;2022-09-03T04:00:02;1.92;;;1.70;;
20241;SDS011;10279;46.388;8.116;2022-09-03T04:02:30;2.95;;;1.65;;
20241;SDS011;10279;46.388;8.116;2022-09-03T04:05:04;2.47;;;1.70;;
20241;SDS011;10279;46.388;8.116;2022-09-03T04:07:33;2.25;;;1.83;;
20241;SDS011;10279;46.388;8.116;2022-09-03T04:10:00;1.77;;;1.67;;
20241;SDS011;10279;46.388;8.116;2022-09-03T04:12:27;1.92;;;1.75;;
20241;SDS011;10279;46.388;8.116;2022-09-03T04:14:54;2.72;;;1.90;;
20241;SDS011;10279;46.388;8.116;2022-09-03T04:17:21;2.42;;;1.70;;
20241;SDS011;10279;46.388;8.116;2022-09-03T04:19:50;2.55;;;1.85;;
20241;SDS011;10279;46.388;8.116;2022-09-03T04:22:17;2.35;;;2.00;;
20241;SDS011;10279;46.388;8.116;2022-09-03T04:24:46;2.38;;;1.70;;
20241;SDS011;10279;46.388;8.116;2022-09-03T04:27:13;2.83;;;1.80;;
20241;SDS011;10279;46.388;8.116;2022-09-03T04:29:40;3.20;;;1.83;;
20241;SDS011;10279;46.388;8.116;2022-09-03T04:32:07;2.42;;;2.10;;
20241;SDS011;10279;46.388;8.116;2022-09-03T04:34:52;2.63;;;1.90;;
20241;SDS011;10279;46.388;8.116;2022-09-03T04:37:20;1.60;;;1.50;;
20241;SDS011;10279;46.388;8.116;2022-09-03T04:39:47;1.60;;;1.50;;
20241;SDS011;10279;46.388;8.116;2022-09-03T04:42:14;3.22;;;1.63;;
20241;SDS011;10279;46.388;8.116;2022-09-03T04:44:41;2.40;;;1.60;;
20241;SDS011;10279;46.388;8.116;2022-09-03T04:47:08;2.78;;;1.48;;
20241;SDS011;10279;46.388;8.116;2022-09-03T04:49:35;1.65;;;1.55;;
20241;SDS011;10279;46.388;8.116;2022-09-03T04:52:02;2.00;;;1.80;;
20241;SDS011;10279;46.388;8.116;2022-09-03T04:54:29;3.00;;;1.50;;
20241;SDS011;10279;46.388;8.116;2022-09-03T04:56:57;1.98;;;1.77;;
20241;SDS011;10279;46.388;8.116;2022-09-03T04:59:24;2.53;;;1.80;;
20241;SDS011;10279;46.388;8.116;2022-09-03T05:01:51;2.60;;;2.20;;
20241;SDS011;10279;46.388;8.116;2022-09-03T05:04:18;2.70;;;2.00;;
20241;SDS011;10279;46.388;8.116;2022-09-03T05:06:45;2.03;;;1.83;;
20241;SDS011;10279;46.388;8.116;2022-09-03T05:09:12;1.73;;;1.63;;
20241;SDS011;10279;46.388;8.116;2022-09-03T05:11:39;2.30;;;1.58;;
20241;SDS011;10279;46.388;8.116;2022-09-03T05:14:07;2.10;;;1.90;;
20241;SDS011;10279;46.388;8.116;2022-09-03T05:16:40;1.58;;;1.48;;
20241;SDS011;10279;46.388;8.116;2022-09-03T05:19:17;2.92;;;1.85;;
20241;SDS011;10279;46.388;8.116;2022-09-03T05:21:44;2.47;;;1.67;;
20241;SDS011;10279;46.388;8.116;2022-09-03T05:24:12;1.77;;;1.60;;
20241;SDS011;10279;46.388;8.116;2022-09-03T05:26:40;1.70;;;1.60;;
20241;SDS011;10279;46.388;8.116;2022-09-03T05:29:07;1.98;;;1.85;;
20241;SDS011;10279;46.388;8.116;2022-09-03T05:31:36;2.55;;;1.95;;
20241;SDS011;10279;46.388;8.116;2022-09-03T05:34:07;3.55;;;2.00;;
20241;SDS011;10279;46.388;8.116;2022-09-03T05:36:43;2.47;;;1.80;;
20241;SDS011;10279;46.388;8.116;2022-09-03T05:39:12;2.42;;;1.70;;
20241;SDS011;10279;46.388;8.116;2022-09-03T05:41:39;2.83;;;1.67;;
20241;SDS011;10279;46.388;8.116;2022-09-03T05:44:06;1.63;;;1.50;;
20241;SDS011;10279;46.388;8.116;2022-09-03T05:46:33;2.58;;;1.70;;
20241;SDS011;10279;46.388;8.116;2022-09-03T05:49:04;2.75;;;1.63;;
20241;SDS011;10279;46.388;8.116;2022-09-03T05:51:32;1.60;;;1.50;;
20241;SDS011;10279;46.388;8.116;2022-09-03T05:54:01;2.33;;;1.50;;
20241;SDS011;10279;46.388;8.116;2022-09-03T05:56:30;2.05;;;1.58;;
20241;SDS011;10279;46.388;8.116;2022-09-03T05:58:58;1.70;;;1.50;;
20241;SDS011;10279;46.388;8.116;2022-09-03T06:01:28;3.20;;;1.83;;
20241;SDS011;10279;46.388;8.116;2022-09-03T06:03:58;1.83;;;1.70;;
20241;SDS011;10279;46.388;8.116;2022-09-03T06:06:31;2.03;;;1.83;;
20241;SDS011;10279;46.388;8.116;2022-09-03T06:09:02;2.60;;;2.40;;
20241;SDS011;10279;46.388;8.116;2022-09-03T06:11:31;3.77;;;3.00;;
20241;SDS011;10279;46.388;8.116;2022-09-03T06:14:00;3.13;;;2.70;;
20241;SDS011;10279;46.388;8.116;2022-09-03T06:16:31;4.33;;;2.83;;
20241;SDS011;10279;46.388;8.116;2022-09-03T06:19:02;6.33;;;3.10;;
20241;SDS011;10279;46.388;8.116;2022-09-03T06:21:32;4.77;;;3.37;;
20241;SDS011;10279;46.388;8.116;2022-09-03T06:24:00;4.97;;;3.40;;
20241;SDS011;10279;46.388;8.116;2022-09-03T06:26:28;3.60;;;2.73;;
20241;SDS011;10279;46.388;8.116;2022-09-03T06:28:55;5.30;;;2.87;;
20241;SDS011;10279;46.388;8.116;2022-09-03T06:31:23;3.20;;;2.60;;
20241;SDS011;10279;46.388;8.116;2022-09-03T06:33:51;4.17;;;3.10;;
20241;SDS011;10279;46.388;8.116;2022-09-03T06:36:20;4.40;;;2.80;;
20241;SDS011;10279;46.388;8.116;2022-09-03T06:38:52;3.63;;;2.73;;
20241;SDS011;10279;46.388;8.116;2022-09-03T06:41:22;3.40;;;3.10;;
20241;SDS011;10279;46.388;8.116;2022-09-03T06:43:52;3.90;;;3.07;;
20241;SDS011;10279;46.388;8.116;2022-09-03T06:46:24;6.33;;;3.77;;
20241;SDS011;10279;46.388;8.116;2022-09-03T06:48:51;4.70;;;3.92;;
20241;SDS011;10279;46.388;8.116;2022-09-03T06:51:20;4.57;;;3.15;;
20241;SDS011;10279;46.388;8.116;2022-09-03T06:53:51;3.75;;;2.38;;
20241;SDS011;10279;46.388;8.116;2022-09-03T06:56:20;3.63;;;2.40;;
20241;SDS011;10279;46.388;8.116;2022-09-03T06:58:56;3.07;;;2.77;;
20241;SDS011;10279;46.388;8.116;2022-09-03T07:01:25;3.60;;;2.60;;
20241;SDS011;10279;46.388;8.116;2022-09-03T07:03:58;3.42;;;2.60;;
20241;SDS011;10279;46.388;8.116;2022-09-03T07:06:28;2.85;;;2.42;;
20241;SDS011;10279;46.388;8.116;2022-09-03T07:09:02;2.50;;;1.92;;
20241;SDS011;10279;46.388;8.116;2022-09-03T07:11:33;3.45;;;2.40;;
20241;SDS011;10279;46.388;8.116;2022-09-03T07:14:02;3.03;;;2.63;;
20241;SDS011;10279;46.388;8.116;2022-09-03T07:16:36;2.97;;;2.13;;
20241;SDS011;10279;46.388;8.116;2022-09-03T07:19:04;2.25;;;2.05;;
20241;SDS011;10279;46.388;8.116;2022-09-03T07:21:32;4.47;;;2.08;;
20241;SDS011;10279;46.388;8.116;2022-09-03T07:24:13;3.85;;;2.10;;
20241;SDS011;10279;46.388;8.116;2022-09-03T07:26:41;2.22;;;2.03;;
20241;SDS011;10279;46.388;8.116;2022-09-03T07:29:15;2.83;;;1.83;;
20241;SDS011;10279;46.388;8.116;2022-09-03T07:31:46;2.05;;;1.83;;
20241;SDS011;10279;46.388;8.116;2022-09-03T07:34:17;2.00;;;1.80;;
20241;SDS011;10279;46.388;8.116;2022-09-03T07:36:47;2.30;;;1.88;;
20241;SDS011;10279;46.388;8.116;2022-09-03T07:39:17;3.20;;;2.03;;
20241;SDS011;10279;46.388;8.116;2022-09-03T07:41:45;1.98;;;1.77;;
20241;SDS011;10279;46.388;8.116;2022-09-03T07:44:13;2.17;;;1.98;;
20241;SDS011;10279;46.388;8.116;2022-09-03T07:46:41;5.95;;;2.13;;
20241;SDS011;10279;46.388;8.116;2022-09-03T07:49:11;3.17;;;2.15;;
20241;SDS011;10279;46.388;8.116;2022-09-03T07:51:39;4.53;;;2.22;;
20241;SDS011;10279;46.388;8.116;2022-09-03T07:54:07;2.80;;;2.13;;
20241;SDS011;10279;46.388;8.116;2022-09-03T07:56:37;1.50;;;1.40;;
20241;SDS011;10279;46.388;8.116;2022-09-03T07:59:07;1.75;;;1.65;;
20241;SDS011;10279;46.388;8.116;2022-09-03T08:01:35;1.75;;;1.60;;
20241;SDS011;10279;46.388;8.116;2022-09-03T08:04:07;3.15;;;1.70;;
20241;SDS011;10279;46.388;8.116;2022-09-03T08:06:35;2.05;;;1.85;;
20241;SDS011;10279;46.388;8.116;2022-09-03T08:09:04;1.90;;;1.70;;
20241;SDS011;10279;46.388;8.116;2022-09-03T08:11:35;2.13;;;1.73;;
20241;SDS011;10279;46.388;8.116;2022-09-03T08:14:04;1.60;;;1.50;;
20241;SDS011;10279;46.388;8.116;2022-09-03T08:16:33;1.88;;;1.77;;
20241;SDS011;10279;46.388;8.116;2022-09-03T08:19:01;1.58;;;1.48;;
20241;SDS011;10279;46.388;8.116;2022-09-03T08:21:29;1.70;;;1.60;;
20241;SDS011;10279;46.388;8.116;2022-09-03T08:23:56;1.80;;;1.70;;
20241;SDS011;10279;46.388;8.116;2022-09-03T08:26:33;2.10;;;1.70;;
20241;SDS011;10279;46.388;8.116;2022-09-03T08:29:02;1.73;;;1.50;;
20241;SDS011;10279;46.388;8.116;2022-09-03T08:31:30;1.70;;;1.60;;
20241;SDS011;10279;46.388;8.116;2022-09-03T08:33:59;2.90;;;1.88;;
20241;SDS011;10279;46.388;8.116;2022-09-03T08:36:32;3.53;;;1.50;;
20241;SDS011;10279;46.388;8.116;2022-09-03T08:39:00;2.50;;;1.73;;
20241;SDS011;10279;46.388;8.116;2022-09-03T08:41:39;1.48;;;1.38;;
20241;SDS011;10279;46.388;8.116;2022-09-03T08:49:27;1.95;;;1.75;;
20241;SDS011;10279;46.388;8.116;2022-09-03T08:51:57;2.08;;;1.52;;
20241;SDS011;10279;46.388;8.116;2022-09-03T08:54:28;1.98;;;1.50;;
20241;SDS011;10279;46.388;8.116;2022-09-03T08:56:58;1.80;;;1.55;;
20241;SDS011;10279;46.388;8.116;2022-09-03T08:59:27;1.35;;;1.27;;
20241;SDS011;10279;46.388;8.116;2022-09-03T09:02:10;3.13;;;1.50;;
20241;SDS011;10279;46.388;8.116;2022-09-03T09:07:48;1.42;;;1.33;;
20241;SDS011;10279;46.388;8.116;2022-09-03T09:10:11;3.45;;;1.33;;
20241;SDS011;10279;46.388;8.116;2022-09-03T09:23:28;2.70;;;1.30;;
20241;SDS011;10279;46.388;8.116;2022-09-03T09:25:58;1.30;;;1.20;;
20241;SDS011;10279;46.388;8.116;2022-09-03T09:28:32;1.17;;;1.13;;
20241;SDS011;10279;46.388;8.116;2022-09-03T09:31:01;1.33;;;1.23;;
20241;SDS011;10279;46.388;8.116;2022-09-03T09:33:30;1.52;;;1.30;;
20241;SDS011;10279;46.388;8.116;2022-09-03T09:36:01;1.30;;;1.20;;
20241;SDS011;10279;46.388;8.116;2022-09-03T09:38:30;1.83;;;1.30;;
20241;SDS011;10279;46.388;8.116;2022-09-03T09:41:07;1.38;;;1.20;;
20241;SDS011;10279;46.388;8.116;2022-09-03T09:43:35;2.08;;;1.30;;
20241;SDS011;10279;46.388;8.116;2022-09-03T09:46:14;1.73;;;1.23;;
20241;SDS011;10279;46.388;8.116;2022-09-03T09:48:52;1.25;;;1.15;;
20241;SDS011;10279;46.388;8.116;2022-09-03T09:51:21;2.97;;;1.40;;
20241;SDS011;10279;46.388;8.116;2022-09-03T09:56:35;1.50;;;1.40;;
20241;SDS011;10279;46.388;8.116;2022-09-03T09:59:06;1.20;;;1.00;;
20241;SDS011;10279;46.388;8.116;2022-09-03T10:01:38;2.28;;;1.30;;
20241;SDS011;10279;46.388;8.116;2022-09-03T10:04:27;1.05;;;0.90;;
20241;SDS011;10279;46.388;8.116;2022-09-03T10:07:21;1.55;;;1.45;;
20241;SDS011;10279;46.388;8.116;2022-09-03T10:09:56;1.17;;;1.10;;
20241;SDS011;10279;46.388;8.116;2022-09-03T10:12:44;1.20;;;1.02;;
20241;SDS011;10279;46.388;8.116;2022-09-03T10:15:24;1.10;;;1.00;;
20241;SDS011;10279;46.388;8.116;2022-09-03T10:18:06;1.70;;;1.35;;
20241;SDS011;10279;46.388;8.116;2022-09-03T10:20:50;3.45;;;1.20;;
20241;SDS011;10279;46.388;8.116;2022-09-03T10:23:21;1.30;;;1.20;;
20241;SDS011;10279;46.388;8.116;2022-09-03T10:28:26;3.15;;;1.25;;
20241;SDS011;10279;46.388;8.116;2022-09-03T10:33:38;2.50;;;1.52;;
20241;SDS011;10279;46.388;8.116;2022-09-03T10:36:15;2.75;;;1.60;;
20241;SDS011;10279;46.388;8.116;2022-09-03T10:38:47;4.10;;;1.85;;
20241;SDS011;10279;46.388;8.116;2022-09-03T10:46:25;2.78;;;1.50;;
20241;SDS011;10279;46.388;8.116;2022-09-03T10:51:45;5.47;;;2.00;;
20241;SDS011;10279;46.388;8.116;2022-09-03T10:56:57;2.00;;;1.90;;
20241;SDS011;10279;46.388;8.116;2022-09-03T10:59:35;2.00;;;1.55;;
20241;SDS011;10279;46.388;8.116;2022-09-03T11:02:17;2.53;;;1.88;;
20241;SDS011;10279;46.388;8.116;2022-09-03T11:07:21;3.15;;;1.67;;
20241;SDS011;10279;46.388;8.116;2022-09-03T11:12:24;1.60;;;1.50;;
20241;SDS011;10279;46.388;8.116;2022-09-03T11:17:27;1.92;;;1.50;;
20241;SDS011;10279;46.388;8.116;2022-09-03T11:22:30;1.50;;;1.40;;
20241;SDS011;10279;46.388;8.116;2022-09-03T11:24:59;2.13;;;1.58;;
20241;SDS011;10279;46.388;8.116;2022-09-03T11:30:05;1.20;;;1.10;;
20241;SDS011;10279;46.388;8.116;2022-09-03T11:32:43;1.73;;;1.20;;
20241;SDS011;10279;46.388;8.116;2022-09-03T11:35:26;1.33;;;1.17;;
20241;SDS011;10279;46.388;8.116;2022-09-03T11:37:57;1.50;;;1.40;;
20241;SDS011;10279;46.388;8.116;2022-09-03T11:40:35;1.42;;;1.20;;
20241;SDS011;10279;46.388;8.116;2022-09-03T11:43:07;1.52;;;1.20;;
20241;SDS011;10279;46.388;8.116;2022-09-03T11:45:38;1.20;;;1.10;;
20241;SDS011;10279;46.388;8.116;2022-09-03T11:48:27;1.30;;;1.20;;
20241;SDS011;10279;46.388;8.116;2022-09-03T11:50:55;2.42;;;1.13;;
20241;SDS011;10279;46.388;8.116;2022-09-03T11:53:31;1.33;;;1.20;;
20241;SDS011;10279;46.388;8.116;2022-09-03T11:58:36;1.65;;;1.30;;
20241;SDS011;10279;46.388;8.116;2022-09-03T12:01:15;0.82;;;0.82;;
20241;SDS011;10279;46.388;8.116;2022-09-03T12:03:48;1.17;;;1.10;;
20241;SDS011;10279;46.388;8.116;2022-09-03T12:11:52;1.05;;;0.95;;
20241;SDS011;10279;46.388;8.116;2022-09-03T12:14:26;1.27;;;1.17;;
20241;SDS011;10279;46.388;8.116;2022-09-03T12:19:56;1.10;;;1.00;;
20241;SDS011;10279;46.388;8.116;2022-09-03T12:22:26;1.63;;;1.20;;
20241;SDS011;10279;46.388;8.116;2022-09-03T12:24:54;2.45;;;1.00;;
20241;SDS011;10279;46.388;8.116;2022-09-03T12:27:23;2.40;;;1.17;;
20241;SDS011;10279;46.388;8.116;2022-09-03T12:29:52;1.40;;;0.95;;
20241;SDS011;10279;46.388;8.116;2022-09-03T12:32:26;1.33;;;1.00;;
20241;SDS011;10279;46.388;8.116;2022-09-03T12:34:56;1.10;;;1.05;;
20241;SDS011;10279;46.388;8.116;2022-09-03T12:37:24;1.67;;;1.00;;
20241;SDS011;10279;46.388;8.116;2022-09-03T12:40:16;2.65;;;1.13;;
20241;SDS011;10279;46.388;8.116;2022-09-03T12:42:44;1.30;;;1.00;;
20241;SDS011;10279;46.388;8.116;2022-09-03T12:45:12;1.38;;;0.90;;
20241;SDS011;10279;46.388;8.116;2022-09-03T12:47:41;1.05;;;0.93;;
20241;SDS011;10279;46.388;8.116;2022-09-03T12:50:14;1.30;;;0.90;;
20241;SDS011;10279;46.388;8.116;2022-09-03T12:52:51;1.35;;;0.90;;
20241;SDS011;10279;46.388;8.116;2022-09-03T12:57:59;1.10;;;1.00;;
20241;SDS011;10279;46.388;8.116;2022-09-03T13:00:31;1.13;;;1.00;;
20241;SDS011;10279;46.388;8.116;2022-09-03T13:03:04;1.30;;;1.00;;
20241;SDS011;10279;46.388;8.116;2022-09-03T13:05:41;0.95;;;0.95;;
20241;SDS011;10279;46.388;8.116;2022-09-03T13:08:13;2.92;;;1.20;;
20241;SDS011;10279;46.388;8.116;2022-09-03T13:10:41;1.20;;;1.10;;
20241;SDS011;10279;46.388;8.116;2022-09-03T13:13:20;1.73;;;0.90;;
20241;SDS011;10279;46.388;8.116;2022-09-03T13:16:33;1.02;;;0.93;;
20241;SDS011;10279;46.388;8.116;2022-09-03T13:29:12;0.90;;;0.90;;
20241;SDS011;10279;46.388;8.116;2022-09-03T13:34:08;2.15;;;1.00;;
20241;SDS011;10279;46.388;8.116;2022-09-03T13:36:46;1.08;;;1.00;;
20241;SDS011;10279;46.388;8.116;2022-09-03T13:44:17;1.13;;;0.90;;
20241;SDS011;10279;46.388;8.116;2022-09-03T13:46:56;0.93;;;0.88;;
20241;SDS011;10279;46.388;8.116;2022-09-03T13:49:40;1.10;;;1.00;;
20241;SDS011;10279;46.388;8.116;2022-09-03T13:55:00;1.50;;;1.00;;
20241;SDS011;10279;46.388;8.116;2022-09-03T13:59:59;1.63;;;0.90;;
20241;SDS011;10279;46.388;8.116;2022-09-03T14:21:22;1.15;;;1.00;;
20241;SDS011;10279;46.388;8.116;2022-09-03T14:23:58;1.17;;;0.93;;
20241;SDS011;10279;46.388;8.116;2022-09-03T14:26:31;1.27;;;1.10;;
20241;SDS011;10279;46.388;8.116;2022-09-03T14:34:10;1.10;;;1.00;;
20241;SDS011;10279;46.388;8.116;2022-09-03T14:36:55;1.77;;;1.00;;
20241;SDS011;10279;46.388;8.116;2022-09-03T14:39:38;1.98;;;0.85;;
20241;SDS011;10279;46.388;8.116;2022-09-03T14:42:17;0.98;;;0.90;;
20241;SDS011;10279;46.388;8.116;2022-09-03T14:50:01;0.93;;;0.88;;
20241;SDS011;10279;46.388;8.116;2022-09-03T14:55:11;1.42;;;1.10;;
20241;SDS011;10279;46.388;8.116;2022-09-03T15:00:33;2.15;;;1.02;;
20241;SDS011;10279;46.388;8.116;2022-09-03T15:05:50;0.80;;;0.80;;
20241;SDS011;10279;46.388;8.116;2022-09-03T15:10:59;1.20;;;1.10;;
20241;SDS011;10279;46.388;8.116;2022-09-03T15:13:32;2.78;;;1.02;;
20241;SDS011;10279;46.388;8.116;2022-09-03T15:16:23;1.08;;;0.98;;
20241;SDS011;10279;46.388;8.116;2022-09-03T15:19:06;1.63;;;1.13;;
20241;SDS011;10279;46.388;8.116;2022-09-03T15:24:36;1.95;;;0.90;;
20241;SDS011;10279;46.388;8.116;2022-09-03T15:27:17;0.90;;;0.90;;
20241;SDS011;10279;46.388;8.116;2022-09-03T15:38:12;1.15;;;1.05;;
20241;SDS011;10279;46.388;8.116;2022-09-03T15:43:29;1.35;;;1.25;;
20241;SDS011;10279;46.388;8.116;2022-09-03T15:45:58;1.40;;;1.15;;
20241;SDS011;10279;46.388;8.116;2022-09-03T15:48:50;1.30;;;1.20;;
20241;SDS011;10279;46.388;8.116;2022-09-03T15:56:27;1.05;;;0.93;;
20241;SDS011;10279;46.388;8.116;2022-09-03T16:07:18;1.38;;;1.10;;
20241;SDS011;10279;46.388;8.116;2022-09-03T16:15:45;1.27;;;1.17;;
20241;SDS011;10279;46.388;8.116;2022-09-03T16:20:51;1.08;;;1.00;;
20241;SDS011;10279;46.388;8.116;2022-09-03T16:23:44;0.98;;;0.95;;
20241;SDS011;10279;46.388;8.116;2022-09-03T16:26:14;1.00;;;1.00;;
20241;SDS011;10279;46.388;8.116;2022-09-03T16:28:46;1.40;;;1.08;;
20241;SDS011;10279;46.388;8.116;2022-09-03T16:55:07;1.25;;;1.15;;
20241;SDS011;10279;46.388;8.116;2022-09-03T17:00:10;0.90;;;0.90;;
20241;SDS011;10279;46.388;8.116;2022-09-03T17:05:38;0.73;;;0.73;;
20241;SDS011;10279;46.388;8.116;2022-09-03T17:13:40;0.80;;;0.80;;
20241;SDS011;10279;46.388;8.116;2022-09-03T17:26:33;0.85;;;0.85;;
20241;SDS011;10279;46.388;8.116;2022-09-03T17:34:48;1.05;;;0.95;;
20241;SDS011;10279;46.388;8.116;2022-09-03T17:37:20;0.70;;;0.70;;
20241;SDS011;10279;46.388;8.116;2022-09-03T17:50:24;0.90;;;0.90;;
20241;SDS011;10279;46.388;8.116;2022-09-03T17:55:27;1.67;;;0.93;;
20241;SDS011;10279;46.388;8.116;2022-09-03T18:03:18;1.33;;;0.95;;
20241;SDS011;10279;46.388;8.116;2022-09-03T18:06:09;0.90;;;0.90;;
20241;SDS011;10279;46.388;8.116;2022-09-03T18:16:51;0.95;;;0.90;;
20241;SDS011;10279;46.388;8.116;2022-09-03T18:19:29;1.20;;;0.98;;
20241;SDS011;10279;46.388;8.116;2022-09-03T18:22:17;1.63;;;0.80;;
20241;SDS011;10279;46.388;8.116;2022-09-03T18:25:05;1.00;;;1.00;;
20241;SDS011;10279;46.388;8.116;2022-09-03T18:27:56;1.17;;;1.08;;
20241;SDS011;10279;46.388;8.116;2022-09-03T18:30:43;1.45;;;1.10;;
20241;SDS011;10279;46.388;8.116;2022-09-03T18:33:29;1.27;;;1.17;;
20241;SDS011;10279;46.388;8.116;2022-09-03T18:36:15;1.67;;;1.30;;
20241;SDS011;10279;46.388;8.116;2022-09-03T18:39:06;1.13;;;1.00;;
20241;SDS011;10279;46.388;8.116;2022-09-03T18:42:17;1.75;;;1.00;;
20241;SDS011;10279;46.388;8.116;2022-09-03T19:00:29;1.77;;;1.15;;
20241;SDS011;10279;46.388;8.116;2022-09-03T19:03:24;1.25;;;1.00;;
20241;SDS011;10279;46.388;8.116;2022-09-03T19:06:28;1.33;;;1.23;;
20241;SDS011;10279;46.388;8.116;2022-09-03T19:09:36;2.17;;;1.13;;
20241;SDS011;10279;46.388;8.116;2022-09-03T19:15:52;1.75;;;1.35;;
20241;SDS011;10279;46.388;8.116;2022-09-03T19:21:49;1.45;;;1.35;;
20241;SDS011;10279;46.388;8.116;2022-09-03T19:24:37;1.40;;;1.30;;
20241;SDS011;10279;46.388;8.116;2022-09-03T19:27:30;1.48;;;1.20;;
20241;SDS011;10279;46.388;8.116;2022-09-03T19:30:29;1.88;;;1.38;;
20241;SDS011;10279;46.388;8.116;2022-09-03T19:36:54;1.70;;;1.45;;
20241;SDS011;10279;46.388;8.116;2022-09-03T19:45:14;1.40;;;1.30;;
20241;SDS011;10279;46.388;8.116;2022-09-03T19:51:24;1.25;;;1.15;;
20241;SDS011;10279;46.388;8.116;2022-09-03T19:54:14;1.40;;;1.30;;
20241;SDS011;10279;46.388;8.116;2022-09-03T19:57:01;2.92;;;1.30;;
20241;SDS011;10279;46.388;8.116;2022-09-03T19:59:48;1.80;;;1.50;;
20241;SDS011;10279;46.388;8.116;2022-09-03T20:02:34;1.75;;;1.33;;
20241;SDS011;10279;46.388;8.116;2022-09-03T20:05:20;1.20;;;1.13;;
20241;SDS011;10279;46.388;8.116;2022-09-03T20:08:07;1.45;;;1.35;;
20241;SDS011;10279;46.388;8.116;2022-09-03T20:10:55;1.48;;;1.38;;
20241;SDS011;10279;46.388;8.116;2022-09-03T20:13:24;2.25;;;1.45;;
20241;SDS011;10279;46.388;8.116;2022-09-03T20:31:23;1.63;;;1.52;;
20241;SDS011;10279;46.388;8.116;2022-09-03T20:39:49;1.70;;;1.60;;
20241;SDS011;10279;46.388;8.116;2022-09-03T20:52:56;2.38;;;1.58;;
20241;SDS011;10279;46.388;8.116;2022-09-03T20:55:35;2.92;;;1.60;;
20241;SDS011;10279;46.388;8.116;2022-09-03T20:58:12;2.97;;;1.60;;
20241;SDS011;10279;46.388;8.116;2022-09-03T21:00:46;1.60;;;1.50;;
20241;SDS011;10279;46.388;8.116;2022-09-03T21:06:02;1.73;;;1.60;;
20241;SDS011;10279;46.388;8.116;2022-09-03T21:11:16;6.30;;;2.42;;
20241;SDS011;10279;46.388;8.116;2022-09-03T21:22:24;3.78;;;1.95;;
20241;SDS011;10279;46.388;8.116;2022-09-03T21:24:55;2.17;;;1.60;;
20241;SDS011;10279;46.388;8.116;2022-09-03T21:27:28;1.95;;;1.65;;
20241;SDS011;10279;46.388;8.116;2022-09-03T21:30:07;1.95;;;1.60;;
20241;SDS011;10279;46.388;8.116;2022-09-03T21:32:44;2.85;;;1.63;;
20241;SDS011;10279;46.388;8.116;2022-09-03T21:35:19;1.80;;;1.48;;
20241;SDS011;10279;46.388;8.116;2022-09-03T21:37:50;2.05;;;1.23;;